createdAt,value
2022-12-15T00:00:32.812Z,-3.20
2022-12-15T00:05:53.498Z,-3.20
2022-12-15T00:11:14.002Z,-3.30
2022-12-15T00:16:34.570Z,-3.30
2022-12-15T00:21:54.991Z,-3.30
2022-12-15T00:27:15.502Z,-3.30
2022-12-15T00:32:35.843Z,-3.30
2022-12-15T00:37:56.275Z,-3.40
2022-12-15T00:42:58.155Z,-3.30
2022-12-15T00:48:00.025Z,-3.30
2022-12-15T00:53:20.326Z,-3.30
2022-12-15T00:58:40.720Z,-3.30
2022-12-15T01:04:01.308Z,-3.30
2022-12-15T01:09:23.464Z,-3.20
2022-12-15T01:14:44.457Z,-3.10
2022-12-15T01:20:04.892Z,-2.90
2022-12-15T01:25:08.184Z,-2.90
2022-12-15T01:30:11.506Z,-2.80
2022-12-15T01:35:13.579Z,-2.70
2022-12-15T01:40:36.480Z,-2.60
2022-12-15T01:46:11.986Z,-2.60
2022-12-15T01:51:25.441Z,-2.50
2022-12-15T01:56:35.349Z,-2.50
2022-12-15T02:01:39.385Z,-2.40
2022-12-15T02:06:45.365Z,-2.50
2022-12-15T02:12:20.367Z,-2.50
2022-12-15T02:17:35.371Z,-2.50
2022-12-15T02:23:14.890Z,-2.50
2022-12-15T02:28:24.255Z,-2.60
2022-12-15T02:33:29.903Z,-2.50
2022-12-15T02:38:41.646Z,-2.50
2022-12-15T02:43:43.512Z,-2.50
2022-12-15T02:48:56.027Z,-2.50
2022-12-15T02:54:46.774Z,-2.50
2022-12-15T03:00:02.340Z,-2.50
2022-12-15T03:05:05.040Z,-2.60
2022-12-15T03:10:07.769Z,-2.60
2022-12-15T03:15:10.173Z,-2.50
2022-12-15T03:20:12.842Z,-2.50
2022-12-15T03:25:14.752Z,-2.50
2022-12-15T03:30:16.694Z,-2.40
2022-12-15T03:35:18.739Z,-2.40
2022-12-15T03:40:20.553Z,-2.30
2022-12-15T03:45:24.595Z,-2.30
2022-12-15T03:50:28.338Z,-2.20
2022-12-15T03:55:30.870Z,-2.20
2022-12-15T04:00:33.411Z,-2.20
2022-12-15T04:05:35.910Z,-2.20
2022-12-15T04:10:37.790Z,-2.30
2022-12-15T04:15:40.573Z,-2.20
2022-12-15T04:20:42.439Z,-2.20
2022-12-15T04:26:02.803Z,-2.20
2022-12-15T04:31:30.472Z,-2.10
2022-12-15T04:36:53.518Z,-2.10
2022-12-15T04:42:17.572Z,-2.10
2022-12-15T04:47:38.079Z,-2.20
2022-12-15T04:52:58.335Z,-2.10
2022-12-15T04:58:26.915Z,-2.10
2022-12-15T05:03:47.355Z,-2.10
2022-12-15T05:09:07.742Z,-2.00
2022-12-15T05:14:28.223Z,-2.00
2022-12-15T05:19:48.579Z,-2.00
2022-12-15T05:25:09.026Z,-2.00
2022-12-15T05:30:29.904Z,-2.10
2022-12-15T05:35:31.726Z,-1.90
2022-12-15T05:40:33.611Z,-1.90
2022-12-15T05:45:35.529Z,-1.80
2022-12-15T05:50:37.379Z,-1.70
2022-12-15T05:55:41.422Z,-1.80
2022-12-15T06:00:43.254Z,-1.80
2022-12-15T06:05:45.095Z,-1.90
2022-12-15T06:10:55.190Z,-1.90
2022-12-15T06:15:58.019Z,-1.90
2022-12-15T06:21:08.754Z,-1.90
2022-12-15T06:26:21.437Z,-1.80
2022-12-15T06:31:25.390Z,-1.80
2022-12-15T06:36:28.640Z,-1.80
2022-12-15T06:41:31.231Z,-1.80
2022-12-15T06:46:34.992Z,-1.90
2022-12-15T06:51:37.184Z,-1.90
2022-12-15T06:56:39.319Z,-1.80
2022-12-15T07:01:42.034Z,-1.80
2022-12-15T07:06:45.287Z,-1.80
2022-12-15T07:11:50.537Z,-1.70
2022-12-15T07:16:53.262Z,-1.70
2022-12-15T07:21:58.006Z,-1.60
2022-12-15T07:27:01.109Z,-1.70
2022-12-15T07:32:03.867Z,-1.80
2022-12-15T07:37:06.057Z,-1.80
2022-12-15T07:42:07.899Z,-1.60
2022-12-15T07:47:09.702Z,-1.60
2022-12-15T07:52:11.683Z,-1.50
2022-12-15T07:57:13.493Z,-1.60
2022-12-15T08:02:15.592Z,-1.50
2022-12-15T08:07:17.687Z,-1.60
2022-12-15T08:12:19.499Z,-1.60
2022-12-15T08:17:21.367Z,-1.70
2022-12-15T08:22:23.186Z,-1.60
2022-12-15T08:27:27.264Z,-1.70
2022-12-15T08:32:29.078Z,-1.80
2022-12-15T08:37:31.001Z,-1.80
2022-12-15T08:42:36.943Z,-1.90
2022-12-15T08:47:40.067Z,-1.70
2022-12-15T08:52:55.233Z,-1.80
2022-12-15T08:58:02.843Z,-1.70
2022-12-15T09:03:04.741Z,-1.70
2022-12-15T09:08:07.083Z,-1.60
2022-12-15T09:13:08.947Z,-1.60
2022-12-15T09:18:10.779Z,-1.70
2022-12-15T09:23:12.614Z,-1.60
2022-12-15T09:28:15.117Z,-1.60
2022-12-15T09:33:16.948Z,-1.40
2022-12-15T09:38:18.872Z,-1.40
2022-12-15T09:43:44.806Z,-1.30
2022-12-15T09:48:49.106Z,-1.40
2022-12-15T09:53:56.135Z,-1.30
2022-12-15T09:59:18.341Z,-1.20
2022-12-15T10:04:32.884Z,-1.10
2022-12-15T10:09:37.037Z,-1.30
2022-12-15T10:14:43.512Z,-1.20
2022-12-15T10:20:06.704Z,-1.00
2022-12-15T10:25:30.915Z,-1.20
2022-12-15T10:30:36.841Z,-1.20
2022-12-15T10:35:40.582Z,-1.10
2022-12-15T10:40:55.619Z,-1.30
2022-12-15T10:46:15.589Z,-1.20
2022-12-15T10:51:29.942Z,-1.00
2022-12-15T10:56:34.274Z,-1.00
2022-12-15T11:01:36.547Z,-1.00
2022-12-15T11:06:42.325Z,-0.90
2022-12-15T11:12:11.920Z,-1.00
2022-12-15T11:17:22.953Z,-1.00
2022-12-15T11:22:46.515Z,-1.00
2022-12-15T11:28:06.951Z,-1.40
2022-12-15T11:33:10.452Z,-1.40
2022-12-15T11:38:24.501Z,-1.10
2022-12-15T11:43:52.075Z,-1.10
2022-12-15T11:48:53.840Z,-1.00
2022-12-15T11:54:31.425Z,-1.30
2022-12-15T11:59:53.521Z,-1.30
2022-12-15T12:05:24.636Z,-1.20
2022-12-15T12:10:55.726Z,-1.10
2022-12-15T12:16:13.716Z,-1.10
2022-12-15T12:21:20.916Z,-1.30
2022-12-15T12:26:35.371Z,-1.20
2022-12-15T12:32:11.062Z,-1.40
2022-12-15T12:37:43.845Z,-1.40
2022-12-15T12:43:00.437Z,-1.30
2022-12-15T12:48:17.928Z,-1.40
2022-12-15T12:53:34.132Z,-1.40
2022-12-15T12:58:41.552Z,-1.20
2022-12-15T13:03:43.666Z,-1.10
2022-12-15T13:08:51.324Z,-1.20
2022-12-15T13:13:54.033Z,-1.10
2022-12-15T13:19:08.482Z,-1.30
2022-12-15T13:24:28.440Z,-1.30
2022-12-15T13:29:30.334Z,-1.40
2022-12-15T13:34:40.850Z,-1.60
2022-12-15T13:39:55.153Z,-1.70
2022-12-15T13:45:10.859Z,-1.70
2022-12-15T13:50:16.604Z,-1.60
2022-12-15T13:55:27.561Z,-1.60
2022-12-15T14:00:31.235Z,-1.60
2022-12-15T14:05:33.149Z,-1.80
2022-12-15T14:10:44.292Z,-1.60
2022-12-15T14:15:51.283Z,-1.70
2022-12-15T14:20:53.308Z,-1.70
2022-12-15T14:26:04.603Z,-1.70
2022-12-15T14:31:16.346Z,-1.80
2022-12-15T14:36:20.390Z,-1.80
2022-12-15T14:41:27.206Z,-2.00
2022-12-15T14:46:29.790Z,-1.90
2022-12-15T14:51:43.008Z,-2.00
2022-12-15T14:56:44.884Z,-2.10
2022-12-15T15:01:59.750Z,-2.10
2022-12-15T15:07:04.889Z,-2.00
2022-12-15T15:12:09.247Z,-2.20
2022-12-15T15:17:20.599Z,-2.20
2022-12-15T15:22:28.410Z,-2.20
2022-12-15T15:27:30.279Z,-2.20
2022-12-15T15:32:32.157Z,-2.30
2022-12-15T15:37:33.996Z,-2.30
2022-12-15T15:42:35.840Z,-2.30
2022-12-15T15:47:37.913Z,-2.30
2022-12-15T15:52:40.008Z,-2.30
2022-12-15T15:57:42.175Z,-2.30
2022-12-15T16:02:44.255Z,-2.40
2022-12-15T16:07:46.840Z,-2.40
2022-12-15T16:12:53.516Z,-2.40
2022-12-15T16:17:56.496Z,-2.40
2022-12-15T16:23:02.675Z,-2.50
2022-12-15T16:28:19.601Z,-2.50
2022-12-15T16:33:22.409Z,-2.50
2022-12-15T16:38:32.286Z,-2.50
2022-12-15T16:43:39.144Z,-2.20
2022-12-15T16:48:44.638Z,-2.10
2022-12-15T16:53:48.436Z,-2.20
2022-12-15T16:58:57.401Z,-2.30
2022-12-15T17:04:13.386Z,-2.30
2022-12-15T17:09:23.998Z,-2.30
2022-12-15T17:14:27.373Z,-2.40
2022-12-15T17:19:30.074Z,-2.40
2022-12-15T17:24:33.058Z,-2.40
2022-12-15T17:29:35.716Z,-2.40
2022-12-15T17:34:38.460Z,-2.40
2022-12-15T17:39:45.051Z,-2.40
2022-12-15T17:44:51.753Z,-2.40
2022-12-15T17:49:56.282Z,-2.40
2022-12-15T17:54:58.968Z,-2.40
2022-12-15T18:00:02.574Z,-2.40
2022-12-15T18:05:08.623Z,-2.40
2022-12-15T18:10:29.567Z,-2.40
2022-12-15T18:15:32.547Z,-2.40
2022-12-15T18:20:34.547Z,-2.40
2022-12-15T18:25:36.398Z,-2.30
2022-12-15T18:30:38.769Z,-2.40
2022-12-15T18:35:43.503Z,-2.40
2022-12-15T18:40:47.184Z,-2.40
2022-12-15T18:45:52.938Z,-2.40
2022-12-15T18:50:56.588Z,-2.40
2022-12-15T18:56:01.642Z,-2.40
2022-12-15T19:01:05.009Z,-2.40
2022-12-15T19:06:12.978Z,-2.40
2022-12-15T19:11:21.914Z,-2.40
2022-12-15T19:16:23.782Z,-2.40
2022-12-15T19:21:46.128Z,-2.50
2022-12-15T19:26:48.044Z,-2.50
2022-12-15T19:31:50.073Z,-2.60
2022-12-15T19:36:52.170Z,-2.60
2022-12-15T19:41:55.370Z,-2.60
2022-12-15T19:46:57.720Z,-2.60
2022-12-15T19:51:59.537Z,-2.60
2022-12-15T19:57:01.334Z,-2.60
2022-12-15T20:02:03.905Z,-2.70
2022-12-15T20:07:06.058Z,-2.70
2022-12-15T20:12:16.532Z,-2.70
2022-12-15T20:17:18.367Z,-2.70
2022-12-15T20:22:20.305Z,-2.70
2022-12-15T20:27:22.149Z,-2.80
2022-12-15T20:32:24.003Z,-2.80
2022-12-15T20:37:28.874Z,-2.90
2022-12-15T20:42:30.975Z,-2.90
2022-12-15T20:47:34.265Z,-2.90
2022-12-15T20:52:37.003Z,-2.90
2022-12-15T20:57:38.815Z,-2.90
2022-12-15T21:02:43.085Z,-2.90
2022-12-15T21:07:45.621Z,-3.00
2022-12-15T21:12:49.208Z,-3.00
2022-12-15T21:18:11.230Z,-3.00
2022-12-15T21:23:25.699Z,-3.00
2022-12-15T21:28:27.828Z,-3.00
2022-12-15T21:33:29.701Z,-3.00
2022-12-15T21:38:38.830Z,-3.00
2022-12-15T21:43:40.674Z,-3.00
2022-12-15T21:49:02.276Z,-3.00
2022-12-15T21:54:05.337Z,-3.00
2022-12-15T21:59:19.563Z,-3.00
2022-12-15T22:04:25.280Z,-3.00
2022-12-15T22:09:27.212Z,-3.00
2022-12-15T22:14:32.093Z,-3.00
2022-12-15T22:19:33.955Z,-3.00
2022-12-15T22:24:35.878Z,-3.00
2022-12-15T22:29:37.871Z,-3.00
2022-12-15T22:34:39.727Z,-3.00
2022-12-15T22:39:41.759Z,-3.00
2022-12-15T22:44:45.127Z,-3.00
2022-12-15T22:49:46.894Z,-2.90
2022-12-15T22:54:48.956Z,-3.00
2022-12-15T23:00:03.005Z,-3.00
2022-12-15T23:05:06.074Z,-3.00
2022-12-15T23:10:27.394Z,-3.00
2022-12-15T23:15:48.372Z,-3.10
2022-12-15T23:20:51.621Z,-3.00
2022-12-15T23:25:55.960Z,-3.10
2022-12-15T23:30:57.962Z,-3.10
2022-12-15T23:36:02.583Z,-3.00
2022-12-15T23:41:04.895Z,-3.00
2022-12-15T23:46:07.301Z,-3.10
2022-12-15T23:51:11.679Z,-3.00
2022-12-15T23:56:16.157Z,-3.10
